Hovedside
METAR-TAF:

METAR-TAF

Lufthavner :

Ørsta/Volda lufthamn. Hovden

Ørsta-Volda, Norge

breddegrad: 62-11N, lengdegrad: 006-04E, høyde over havet: 7 m

Gjeldene værobservasjon

Denne rapporten ble laget for 34 minutter siden, klokken 09:50 UTC
Vind 2 kt fra Vest-sørvest
Temperatur 6°C
Luftfuktighet 81%
Trykk 1038 hPa
Sikt 10 km eller mer
Få skyer i en høyde av 900 ft
Spredte skyer i en høyde av 1600 ft
Overskyet i en høyde av 1800 ft

METAR: ENOV 190950Z 24002KT 9999 FEW009 SCT016 OVC018 06/03 Q1038 RMK WIND 2175FT 00000KT

Tid: 11:24 (10:24 UTC)


TAF: fraværende

Værobservasjoner og værvarsel for over 4000 flyplasser (METAR- og TAF-rapporter).

Tilgjengelige stasjoner er representert av de røde og gule prikkene på kartet.

Hold musepekeren over prikken for å se navnet på stasjonen.

Klikk så for å se værobservasjoner og -varsler.

For å forandre kartet kan du klikke på den grønne knappen med svart kryss for å zoome inn, på den grønne knappen med strek for å zoome ut, eller på de grønne pilene for å se tilstøtende kart.


METAR-TAF: